sensor_id;sensor_type;location;lat;lon;timestamp;temperature;humidity
21255;DHT22;10785;50.674;17.954;2022-12-20T00:01:55;1.20;1.00
21255;DHT22;10785;50.674;17.954;2022-12-20T00:04:24;1.20;1.00
21255;DHT22;10785;50.674;17.954;2022-12-20T00:06:54;1.20;1.00
21255;DHT22;10785;50.674;17.954;2022-12-20T00:09:23;1.20;1.00
21255;DHT22;10785;50.674;17.954;2022-12-20T00:11:52;1.20;1.00
21255;DHT22;10785;50.674;17.954;2022-12-20T00:14:21;1.20;1.00
21255;DHT22;10785;50.674;17.954;2022-12-20T00:16:50;1.20;1.00
21255;DHT22;10785;50.674;17.954;2022-12-20T00:19:18;1.20;1.00
21255;DHT22;10785;50.674;17.954;2022-12-20T00:21:47;1.30;1.00
21255;DHT22;10785;50.674;17.954;2022-12-20T00:24:17;1.40;1.00
21255;DHT22;10785;50.674;17.954;2022-12-20T00:26:52;1.30;1.00
21255;DHT22;10785;50.674;17.954;2022-12-20T00:29:21;1.30;1.00
21255;DHT22;10785;50.674;17.954;2022-12-20T00:31:49;1.30;1.00
21255;DHT22;10785;50.674;17.954;2022-12-20T00:34:18;1.30;1.00
21255;DHT22;10785;50.674;17.954;2022-12-20T00:36:47;1.40;1.00
21255;DHT22;10785;50.674;17.954;2022-12-20T00:39:17;1.40;1.00
21255;DHT22;10785;50.674;17.954;2022-12-20T00:41:45;1.40;1.00
21255;DHT22;10785;50.674;17.954;2022-12-20T00:44:14;1.40;1.00
21255;DHT22;10785;50.674;17.954;2022-12-20T00:46:43;1.40;1.00
21255;DHT22;10785;50.674;17.954;2022-12-20T00:49:12;1.40;1.00
21255;DHT22;10785;50.674;17.954;2022-12-20T00:51:41;1.40;1.00
21255;DHT22;10785;50.674;17.954;2022-12-20T00:54:10;1.40;1.00
21255;DHT22;10785;50.674;17.954;2022-12-20T00:56:40;1.40;1.00
21255;DHT22;10785;50.674;17.954;2022-12-20T00:59:08;1.40;1.00
21255;DHT22;10785;50.674;17.954;2022-12-20T01:01:37;1.40;1.00
21255;DHT22;10785;50.674;17.954;2022-12-20T01:04:06;1.40;1.00
21255;DHT22;10785;50.674;17.954;2022-12-20T01:06:35;1.30;1.00
21255;DHT22;10785;50.674;17.954;2022-12-20T01:09:04;1.30;1.00
21255;DHT22;10785;50.674;17.954;2022-12-20T01:11:35;1.20;1.00
21255;DHT22;10785;50.674;17.954;2022-12-20T01:14:07;1.10;1.00
21255;DHT22;10785;50.674;17.954;2022-12-20T01:16:37;1.10;1.00
21255;DHT22;10785;50.674;17.954;2022-12-20T01:19:08;1.10;1.00
21255;DHT22;10785;50.674;17.954;2022-12-20T01:21:39;1.00;1.00
21255;DHT22;10785;50.674;17.954;2022-12-20T01:24:11;1.00;1.00
21255;DHT22;10785;50.674;17.954;2022-12-20T01:26:40;1.00;1.00
21255;DHT22;10785;50.674;17.954;2022-12-20T01:29:11;1.00;1.00
21255;DHT22;10785;50.674;17.954;2022-12-20T01:31:41;1.00;1.00
21255;DHT22;10785;50.674;17.954;2022-12-20T01:34:10;1.00;1.00
21255;DHT22;10785;50.674;17.954;2022-12-20T01:36:39;0.90;1.00
21255;DHT22;10785;50.674;17.954;2022-12-20T01:39:11;1.00;1.00
21255;DHT22;10785;50.674;17.954;2022-12-20T01:41:41;0.90;1.00
21255;DHT22;10785;50.674;17.954;2022-12-20T01:47:13;0.90;1.00
21255;DHT22;10785;50.674;17.954;2022-12-20T01:49:45;0.90;1.00
21255;DHT22;10785;50.674;17.954;2022-12-20T01:52:18;0.90;1.00
21255;DHT22;10785;50.674;17.954;2022-12-20T01:54:49;0.80;1.00
21255;DHT22;10785;50.674;17.954;2022-12-20T01:57:23;0.80;1.00
21255;DHT22;10785;50.674;17.954;2022-12-20T01:59:54;0.80;1.00
21255;DHT22;10785;50.674;17.954;2022-12-20T02:02:25;0.80;1.00
21255;DHT22;10785;50.674;17.954;2022-12-20T02:04:54;0.80;1.00
21255;DHT22;10785;50.674;17.954;2022-12-20T02:07:24;0.80;1.00
21255;DHT22;10785;50.674;17.954;2022-12-20T02:09:56;0.70;1.00
21255;DHT22;10785;50.674;17.954;2022-12-20T02:12:29;0.70;1.00
21255;DHT22;10785;50.674;17.954;2022-12-20T02:15:11;0.70;1.00
21255;DHT22;10785;50.674;17.954;2022-12-20T02:17:52;0.70;1.00
21255;DHT22;10785;50.674;17.954;2022-12-20T02:20:45;0.60;1.00
21255;DHT22;10785;50.674;17.954;2022-12-20T02:26:37;0.60;1.00
21255;DHT22;10785;50.674;17.954;2022-12-20T02:29:23;0.70;1.00
21255;DHT22;10785;50.674;17.954;2022-12-20T02:32:00;0.60;1.00
21255;DHT22;10785;50.674;17.954;2022-12-20T02:34:32;0.70;1.00
21255;DHT22;10785;50.674;17.954;2022-12-20T02:37:03;0.70;1.00
21255;DHT22;10785;50.674;17.954;2022-12-20T02:39:35;0.70;1.00
21255;DHT22;10785;50.674;17.954;2022-12-20T02:42:06;0.70;1.00
21255;DHT22;10785;50.674;17.954;2022-12-20T02:44:44;0.80;1.00
21255;DHT22;10785;50.674;17.954;2022-12-20T02:47:36;0.80;1.00
21255;DHT22;10785;50.674;17.954;2022-12-20T02:50:07;0.70;1.00
21255;DHT22;10785;50.674;17.954;2022-12-20T02:52:37;0.80;1.00
21255;DHT22;10785;50.674;17.954;2022-12-20T02:55:09;0.70;1.00
21255;DHT22;10785;50.674;17.954;2022-12-20T02:57:46;0.80;1.00
21255;DHT22;10785;50.674;17.954;2022-12-20T03:00:30;0.80;1.00
21255;DHT22;10785;50.674;17.954;2022-12-20T03:03:01;0.80;1.00
21255;DHT22;10785;50.674;17.954;2022-12-20T03:05:50;0.80;1.00
21255;DHT22;10785;50.674;17.954;2022-12-20T03:08:20;0.80;1.00
21255;DHT22;10785;50.674;17.954;2022-12-20T03:10:50;0.90;1.00
21255;DHT22;10785;50.674;17.954;2022-12-20T03:13:20;0.90;1.00
21255;DHT22;10785;50.674;17.954;2022-12-20T03:16:02;0.90;1.00
21255;DHT22;10785;50.674;17.954;2022-12-20T03:18:32;0.90;1.00
21255;DHT22;10785;50.674;17.954;2022-12-20T03:21:01;0.90;1.00
21255;DHT22;10785;50.674;17.954;2022-12-20T03:23:30;0.90;1.00
21255;DHT22;10785;50.674;17.954;2022-12-20T03:25:59;0.90;1.00
21255;DHT22;10785;50.674;17.954;2022-12-20T03:28:35;0.90;1.00
21255;DHT22;10785;50.674;17.954;2022-12-20T03:31:06;1.00;1.00
21255;DHT22;10785;50.674;17.954;2022-12-20T03:33:44;1.00;1.00
21255;DHT22;10785;50.674;17.954;2022-12-20T03:36:13;0.90;1.00
21255;DHT22;10785;50.674;17.954;2022-12-20T03:38:42;0.90;1.00
21255;DHT22;10785;50.674;17.954;2022-12-20T03:41:11;0.90;1.00
21255;DHT22;10785;50.674;17.954;2022-12-20T03:43:39;0.90;1.00
21255;DHT22;10785;50.674;17.954;2022-12-20T03:46:08;0.90;1.00
21255;DHT22;10785;50.674;17.954;2022-12-20T03:48:37;0.90;1.00
21255;DHT22;10785;50.674;17.954;2022-12-20T03:51:09;0.90;1.00
21255;DHT22;10785;50.674;17.954;2022-12-20T03:53:38;0.80;1.00
21255;DHT22;10785;50.674;17.954;2022-12-20T03:56:07;0.80;1.00
21255;DHT22;10785;50.674;17.954;2022-12-20T03:58:36;0.80;1.00
21255;DHT22;10785;50.674;17.954;2022-12-20T04:01:16;1.00;1.00
21255;DHT22;10785;50.674;17.954;2022-12-20T04:03:45;0.80;1.00
21255;DHT22;10785;50.674;17.954;2022-12-20T04:06:16;0.80;1.00
21255;DHT22;10785;50.674;17.954;2022-12-20T04:08:45;0.80;1.00
21255;DHT22;10785;50.674;17.954;2022-12-20T04:11:21;0.80;1.00
21255;DHT22;10785;50.674;17.954;2022-12-20T04:14:05;0.80;1.00
21255;DHT22;10785;50.674;17.954;2022-12-20T04:16:35;0.80;1.00
21255;DHT22;10785;50.674;17.954;2022-12-20T04:19:05;0.80;1.00
21255;DHT22;10785;50.674;17.954;2022-12-20T04:21:40;0.80;1.00
21255;DHT22;10785;50.674;17.954;2022-12-20T04:24:09;0.80;1.00
21255;DHT22;10785;50.674;17.954;2022-12-20T04:26:50;0.80;1.00
21255;DHT22;10785;50.674;17.954;2022-12-20T04:29:19;0.80;1.00
21255;DHT22;10785;50.674;17.954;2022-12-20T04:31:48;0.80;1.00
21255;DHT22;10785;50.674;17.954;2022-12-20T04:34:17;0.80;1.00
21255;DHT22;10785;50.674;17.954;2022-12-20T04:36:48;0.80;1.00
21255;DHT22;10785;50.674;17.954;2022-12-20T04:39:27;0.80;1.00
21255;DHT22;10785;50.674;17.954;2022-12-20T04:42:12;0.80;1.00
21255;DHT22;10785;50.674;17.954;2022-12-20T04:44:40;0.80;1.00
21255;DHT22;10785;50.674;17.954;2022-12-20T04:47:10;0.90;1.00
21255;DHT22;10785;50.674;17.954;2022-12-20T04:49:39;0.90;1.00
21255;DHT22;10785;50.674;17.954;2022-12-20T04:52:08;0.90;1.00
21255;DHT22;10785;50.674;17.954;2022-12-20T04:54:54;0.90;1.00
21255;DHT22;10785;50.674;17.954;2022-12-20T04:57:28;1.00;1.00
21255;DHT22;10785;50.674;17.954;2022-12-20T04:59:58;0.90;1.00
21255;DHT22;10785;50.674;17.954;2022-12-20T05:02:30;1.00;1.00
21255;DHT22;10785;50.674;17.954;2022-12-20T05:05:05;1.00;1.00
21255;DHT22;10785;50.674;17.954;2022-12-20T05:07:41;0.90;1.00
21255;DHT22;10785;50.674;17.954;2022-12-20T05:10:10;1.00;1.00
21255;DHT22;10785;50.674;17.954;2022-12-20T05:12:39;0.90;1.00
21255;DHT22;10785;50.674;17.954;2022-12-20T05:15:13;1.00;1.00
21255;DHT22;10785;50.674;17.954;2022-12-20T05:17:43;1.00;1.00
21255;DHT22;10785;50.674;17.954;2022-12-20T05:20:12;0.90;1.00
21255;DHT22;10785;50.674;17.954;2022-12-20T05:22:47;0.90;1.00
21255;DHT22;10785;50.674;17.954;2022-12-20T05:25:34;1.00;1.00
21255;DHT22;10785;50.674;17.954;2022-12-20T05:28:21;0.90;1.00
21255;DHT22;10785;50.674;17.954;2022-12-20T05:30:49;1.00;1.00
21255;DHT22;10785;50.674;17.954;2022-12-20T05:33:18;1.00;1.00
21255;DHT22;10785;50.674;17.954;2022-12-20T05:35:47;0.90;1.00
21255;DHT22;10785;50.674;17.954;2022-12-20T05:38:17;0.90;1.00
21255;DHT22;10785;50.674;17.954;2022-12-20T05:40:47;0.90;1.00
21255;DHT22;10785;50.674;17.954;2022-12-20T05:43:18;0.90;1.00
21255;DHT22;10785;50.674;17.954;2022-12-20T05:45:49;0.90;1.00
21255;DHT22;10785;50.674;17.954;2022-12-20T05:48:24;0.90;1.00
21255;DHT22;10785;50.674;17.954;2022-12-20T05:50:54;0.90;1.00
21255;DHT22;10785;50.674;17.954;2022-12-20T05:53:30;0.80;1.00
21255;DHT22;10785;50.674;17.954;2022-12-20T05:56:03;0.90;1.00
21255;DHT22;10785;50.674;17.954;2022-12-20T05:58:35;0.90;1.00
21255;DHT22;10785;50.674;17.954;2022-12-20T06:01:06;0.80;1.00
21255;DHT22;10785;50.674;17.954;2022-12-20T06:03:37;0.90;1.00
21255;DHT22;10785;50.674;17.954;2022-12-20T06:06:11;0.80;1.00
21255;DHT22;10785;50.674;17.954;2022-12-20T06:08:46;0.80;1.00
21255;DHT22;10785;50.674;17.954;2022-12-20T06:11:26;0.80;1.00
21255;DHT22;10785;50.674;17.954;2022-12-20T06:14:04;0.80;1.00
21255;DHT22;10785;50.674;17.954;2022-12-20T06:16:35;0.80;1.00
21255;DHT22;10785;50.674;17.954;2022-12-20T06:19:05;0.80;1.00
21255;DHT22;10785;50.674;17.954;2022-12-20T06:21:34;0.80;1.00
21255;DHT22;10785;50.674;17.954;2022-12-20T06:24:06;0.70;1.00
21255;DHT22;10785;50.674;17.954;2022-12-20T06:26:38;0.80;1.00
21255;DHT22;10785;50.674;17.954;2022-12-20T06:29:08;0.80;1.00
21255;DHT22;10785;50.674;17.954;2022-12-20T06:31:45;0.80;1.00
21255;DHT22;10785;50.674;17.954;2022-12-20T06:34:14;0.90;1.00
21255;DHT22;10785;50.674;17.954;2022-12-20T06:36:44;0.80;1.00
21255;DHT22;10785;50.674;17.954;2022-12-20T06:39:20;0.80;1.00
21255;DHT22;10785;50.674;17.954;2022-12-20T06:42:02;0.80;1.00
21255;DHT22;10785;50.674;17.954;2022-12-20T06:44:32;0.80;1.00
21255;DHT22;10785;50.674;17.954;2022-12-20T06:47:02;0.80;1.00
21255;DHT22;10785;50.674;17.954;2022-12-20T06:49:30;0.90;1.00
21255;DHT22;10785;50.674;17.954;2022-12-20T06:52:00;0.90;1.00
21255;DHT22;10785;50.674;17.954;2022-12-20T06:54:42;0.80;1.00
21255;DHT22;10785;50.674;17.954;2022-12-20T06:57:12;1.00;1.00
21255;DHT22;10785;50.674;17.954;2022-12-20T06:59:44;1.00;1.00
21255;DHT22;10785;50.674;17.954;2022-12-20T07:02:13;0.90;1.00
21255;DHT22;10785;50.674;17.954;2022-12-20T07:04:42;1.00;1.00
21255;DHT22;10785;50.674;17.954;2022-12-20T07:07:11;1.00;1.00
21255;DHT22;10785;50.674;17.954;2022-12-20T07:09:39;1.10;1.00
21255;DHT22;10785;50.674;17.954;2022-12-20T07:12:10;1.00;1.00
21255;DHT22;10785;50.674;17.954;2022-12-20T07:14:39;1.00;1.00
21255;DHT22;10785;50.674;17.954;2022-12-20T07:17:08;1.00;1.00
21255;DHT22;10785;50.674;17.954;2022-12-20T07:19:37;1.10;1.00
21255;DHT22;10785;50.674;17.954;2022-12-20T07:22:13;1.10;1.00
21255;DHT22;10785;50.674;17.954;2022-12-20T07:24:41;1.20;1.00
21255;DHT22;10785;50.674;17.954;2022-12-20T07:27:12;1.20;1.00
21255;DHT22;10785;50.674;17.954;2022-12-20T07:29:40;1.40;1.00
21255;DHT22;10785;50.674;17.954;2022-12-20T07:32:11;1.30;1.00
21255;DHT22;10785;50.674;17.954;2022-12-20T07:34:41;1.30;1.00
21255;DHT22;10785;50.674;17.954;2022-12-20T07:37:10;1.30;1.00
21255;DHT22;10785;50.674;17.954;2022-12-20T07:39:38;1.40;1.00
21255;DHT22;10785;50.674;17.954;2022-12-20T07:42:11;1.40;1.00
21255;DHT22;10785;50.674;17.954;2022-12-20T07:44:42;1.50;1.00
21255;DHT22;10785;50.674;17.954;2022-12-20T07:47:10;1.50;1.00
21255;DHT22;10785;50.674;17.954;2022-12-20T07:49:39;1.50;1.00
21255;DHT22;10785;50.674;17.954;2022-12-20T07:52:09;1.50;1.00
21255;DHT22;10785;50.674;17.954;2022-12-20T07:54:42;1.60;1.00
21255;DHT22;10785;50.674;17.954;2022-12-20T07:57:17;1.60;1.00
21255;DHT22;10785;50.674;17.954;2022-12-20T07:59:50;1.70;1.00
21255;DHT22;10785;50.674;17.954;2022-12-20T08:02:26;1.60;1.00
21255;DHT22;10785;50.674;17.954;2022-12-20T08:04:58;1.60;1.00
21255;DHT22;10785;50.674;17.954;2022-12-20T08:07:29;1.70;1.00
21255;DHT22;10785;50.674;17.954;2022-12-20T08:09:58;1.60;1.00
21255;DHT22;10785;50.674;17.954;2022-12-20T08:12:31;1.60;1.00
21255;DHT22;10785;50.674;17.954;2022-12-20T08:15:00;1.60;1.00
21255;DHT22;10785;50.674;17.954;2022-12-20T08:17:30;1.50;1.00
21255;DHT22;10785;50.674;17.954;2022-12-20T08:19:58;1.60;1.00
21255;DHT22;10785;50.674;17.954;2022-12-20T08:22:27;1.60;1.00
21255;DHT22;10785;50.674;17.954;2022-12-20T08:24:56;1.60;1.00
21255;DHT22;10785;50.674;17.954;2022-12-20T08:27:24;1.70;1.00
21255;DHT22;10785;50.674;17.954;2022-12-20T08:29:54;1.70;1.00
21255;DHT22;10785;50.674;17.954;2022-12-20T08:32:23;1.70;1.00
21255;DHT22;10785;50.674;17.954;2022-12-20T08:34:52;1.80;1.00
21255;DHT22;10785;50.674;17.954;2022-12-20T08:37:21;1.70;1.00
21255;DHT22;10785;50.674;17.954;2022-12-20T08:39:50;1.70;1.00
21255;DHT22;10785;50.674;17.954;2022-12-20T08:42:18;1.70;1.00
21255;DHT22;10785;50.674;17.954;2022-12-20T08:44:47;1.70;1.00
21255;DHT22;10785;50.674;17.954;2022-12-20T08:47:17;1.70;1.00
21255;DHT22;10785;50.674;17.954;2022-12-20T08:49:46;1.60;1.00
21255;DHT22;10785;50.674;17.954;2022-12-20T08:52:14;1.60;1.00
21255;DHT22;10785;50.674;17.954;2022-12-20T08:54:43;1.60;1.00
21255;DHT22;10785;50.674;17.954;2022-12-20T08:57:12;1.60;1.00
21255;DHT22;10785;50.674;17.954;2022-12-20T08:59:41;1.70;1.00
21255;DHT22;10785;50.674;17.954;2022-12-20T09:02:09;1.60;1.00
21255;DHT22;10785;50.674;17.954;2022-12-20T09:04:39;1.80;1.00
21255;DHT22;10785;50.674;17.954;2022-12-20T09:07:08;1.80;1.00
21255;DHT22;10785;50.674;17.954;2022-12-20T09:09:37;1.80;1.00
21255;DHT22;10785;50.674;17.954;2022-12-20T09:12:05;1.90;1.00
21255;DHT22;10785;50.674;17.954;2022-12-20T09:14:34;1.90;1.00
21255;DHT22;10785;50.674;17.954;2022-12-20T09:17:03;2.00;1.00
21255;DHT22;10785;50.674;17.954;2022-12-20T09:19:32;2.00;1.00
21255;DHT22;10785;50.674;17.954;2022-12-20T09:22:02;2.00;1.00
21255;DHT22;10785;50.674;17.954;2022-12-20T09:24:31;2.00;1.00
21255;DHT22;10785;50.674;17.954;2022-12-20T09:27:00;2.10;1.00
21255;DHT22;10785;50.674;17.954;2022-12-20T09:29:29;2.20;1.00
21255;DHT22;10785;50.674;17.954;2022-12-20T09:32:03;2.20;1.00
21255;DHT22;10785;50.674;17.954;2022-12-20T09:34:32;2.20;1.00
21255;DHT22;10785;50.674;17.954;2022-12-20T09:37:02;2.20;1.00
21255;DHT22;10785;50.674;17.954;2022-12-20T09:39:31;2.20;1.00
21255;DHT22;10785;50.674;17.954;2022-12-20T09:42:06;2.20;1.00
21255;DHT22;10785;50.674;17.954;2022-12-20T09:44:39;2.20;1.00
21255;DHT22;10785;50.674;17.954;2022-12-20T09:47:12;2.20;1.00
21255;DHT22;10785;50.674;17.954;2022-12-20T09:49:45;2.30;1.00
21255;DHT22;10785;50.674;17.954;2022-12-20T09:52:28;2.30;1.00
21255;DHT22;10785;50.674;17.954;2022-12-20T09:55:10;2.30;1.00
21255;DHT22;10785;50.674;17.954;2022-12-20T09:57:51;2.20;1.00
21255;DHT22;10785;50.674;17.954;2022-12-20T10:00:22;2.10;1.00
21255;DHT22;10785;50.674;17.954;2022-12-20T10:02:51;2.10;1.00
21255;DHT22;10785;50.674;17.954;2022-12-20T10:05:35;2.10;1.00
21255;DHT22;10785;50.674;17.954;2022-12-20T10:08:24;2.10;1.00
21255;DHT22;10785;50.674;17.954;2022-12-20T10:10:59;2.10;1.00
21255;DHT22;10785;50.674;17.954;2022-12-20T10:13:40;2.10;1.00
21255;DHT22;10785;50.674;17.954;2022-12-20T10:16:25;2.10;1.00
21255;DHT22;10785;50.674;17.954;2022-12-20T10:19:05;2.00;1.00
21255;DHT22;10785;50.674;17.954;2022-12-20T10:21:43;2.10;1.00
21255;DHT22;10785;50.674;17.954;2022-12-20T10:24:18;2.10;1.00
21255;DHT22;10785;50.674;17.954;2022-12-20T10:26:48;2.10;1.00
21255;DHT22;10785;50.674;17.954;2022-12-20T10:29:18;2.10;1.00
21255;DHT22;10785;50.674;17.954;2022-12-20T10:31:50;2.20;1.00
21255;DHT22;10785;50.674;17.954;2022-12-20T10:34:20;2.30;1.00
21255;DHT22;10785;50.674;17.954;2022-12-20T10:37:09;2.40;1.00
21255;DHT22;10785;50.674;17.954;2022-12-20T10:39:46;2.40;1.00
21255;DHT22;10785;50.674;17.954;2022-12-20T10:42:33;2.50;1.00
21255;DHT22;10785;50.674;17.954;2022-12-20T10:45:25;2.70;1.00
21255;DHT22;10785;50.674;17.954;2022-12-20T10:48:04;2.90;1.00
21255;DHT22;10785;50.674;17.954;2022-12-20T10:50:33;2.90;1.00
21255;DHT22;10785;50.674;17.954;2022-12-20T10:53:21;3.00;1.00
21255;DHT22;10785;50.674;17.954;2022-12-20T10:56:11;3.00;1.00
21255;DHT22;10785;50.674;17.954;2022-12-20T10:58:40;3.10;1.00
21255;DHT22;10785;50.674;17.954;2022-12-20T11:01:14;3.20;1.00
21255;DHT22;10785;50.674;17.954;2022-12-20T11:03:53;3.30;1.00
21255;DHT22;10785;50.674;17.954;2022-12-20T11:06:25;3.40;1.00
21255;DHT22;10785;50.674;17.954;2022-12-20T11:09:20;3.40;1.00
21255;DHT22;10785;50.674;17.954;2022-12-20T11:12:13;3.40;1.00
21255;DHT22;10785;50.674;17.954;2022-12-20T11:14:44;3.40;1.00
21255;DHT22;10785;50.674;17.954;2022-12-20T11:17:26;3.40;1.00
21255;DHT22;10785;50.674;17.954;2022-12-20T11:20:22;3.30;1.00
21255;DHT22;10785;50.674;17.954;2022-12-20T11:23:02;3.10;1.00
21255;DHT22;10785;50.674;17.954;2022-12-20T11:25:43;3.00;1.00
21255;DHT22;10785;50.674;17.954;2022-12-20T11:28:29;2.80;1.00
21255;DHT22;10785;50.674;17.954;2022-12-20T11:31:10;2.70;1.00
21255;DHT22;10785;50.674;17.954;2022-12-20T11:33:51;2.60;1.00
21255;DHT22;10785;50.674;17.954;2022-12-20T11:36:30;2.60;1.00
21255;DHT22;10785;50.674;17.954;2022-12-20T11:39:08;2.60;1.00
21255;DHT22;10785;50.674;17.954;2022-12-20T11:41:46;2.60;1.00
21255;DHT22;10785;50.674;17.954;2022-12-20T11:44:24;2.60;1.00
21255;DHT22;10785;50.674;17.954;2022-12-20T11:47:13;2.50;1.00
21255;DHT22;10785;50.674;17.954;2022-12-20T11:50:06;2.60;1.00
21255;DHT22;10785;50.674;17.954;2022-12-20T11:52:44;2.50;1.00
21255;DHT22;10785;50.674;17.954;2022-12-20T11:55:17;2.50;1.00
21255;DHT22;10785;50.674;17.954;2022-12-20T11:57:56;2.50;1.00
21255;DHT22;10785;50.674;17.954;2022-12-20T12:00:52;2.40;1.00
21255;DHT22;10785;50.674;17.954;2022-12-20T12:03:27;2.40;1.00
21255;DHT22;10785;50.674;17.954;2022-12-20T12:05:59;2.30;1.00
21255;DHT22;10785;50.674;17.954;2022-12-20T12:08:37;2.30;1.00
21255;DHT22;10785;50.674;17.954;2022-12-20T12:11:13;2.20;1.00
21255;DHT22;10785;50.674;17.954;2022-12-20T12:14:05;2.20;1.00
21255;DHT22;10785;50.674;17.954;2022-12-20T12:16:39;2.10;1.00
21255;DHT22;10785;50.674;17.954;2022-12-20T12:19:12;2.20;1.00
21255;DHT22;10785;50.674;17.954;2022-12-20T12:21:46;2.20;1.00
21255;DHT22;10785;50.674;17.954;2022-12-20T12:24:22;2.20;1.00
21255;DHT22;10785;50.674;17.954;2022-12-20T12:26:53;2.20;1.00
21255;DHT22;10785;50.674;17.954;2022-12-20T12:29:22;2.20;1.00
21255;DHT22;10785;50.674;17.954;2022-12-20T12:31:58;2.30;1.00
21255;DHT22;10785;50.674;17.954;2022-12-20T12:34:40;2.30;1.00
21255;DHT22;10785;50.674;17.954;2022-12-20T12:37:30;2.30;1.00
21255;DHT22;10785;50.674;17.954;2022-12-20T12:40:44;2.30;1.00
21255;DHT22;10785;50.674;17.954;2022-12-20T12:43:47;2.30;1.00
21255;DHT22;10785;50.674;17.954;2022-12-20T12:46:19;2.40;1.00
21255;DHT22;10785;50.674;17.954;2022-12-20T12:48:57;2.20;1.00
21255;DHT22;10785;50.674;17.954;2022-12-20T12:51:32;2.20;1.00
21255;DHT22;10785;50.674;17.954;2022-12-20T12:54:16;2.20;1.00
21255;DHT22;10785;50.674;17.954;2022-12-20T12:56:46;2.20;1.00
21255;DHT22;10785;50.674;17.954;2022-12-20T12:59:26;2.20;1.00
21255;DHT22;10785;50.674;17.954;2022-12-20T13:02:35;2.20;1.00
21255;DHT22;10785;50.674;17.954;2022-12-20T13:05:33;2.20;1.00
21255;DHT22;10785;50.674;17.954;2022-12-20T13:08:02;2.20;1.00
21255;DHT22;10785;50.674;17.954;2022-12-20T13:10:55;2.10;1.00
21255;DHT22;10785;50.674;17.954;2022-12-20T13:13:24;2.10;1.00
21255;DHT22;10785;50.674;17.954;2022-12-20T13:16:11;2.10;1.00
21255;DHT22;10785;50.674;17.954;2022-12-20T13:19:11;2.00;1.00
21255;DHT22;10785;50.674;17.954;2022-12-20T13:21:43;2.00;1.00
21255;DHT22;10785;50.674;17.954;2022-12-20T13:24:44;2.00;1.00
21255;DHT22;10785;50.674;17.954;2022-12-20T13:27:22;2.00;1.00
21255;DHT22;10785;50.674;17.954;2022-12-20T13:29:55;2.00;1.00
21255;DHT22;10785;50.674;17.954;2022-12-20T13:32:56;2.00;1.00
21255;DHT22;10785;50.674;17.954;2022-12-20T13:35:46;2.00;1.00
21255;DHT22;10785;50.674;17.954;2022-12-20T13:41:34;2.00;1.00
21255;DHT22;10785;50.674;17.954;2022-12-20T13:44:22;2.00;1.00
21255;DHT22;10785;50.674;17.954;2022-12-20T13:46:57;2.00;1.00
21255;DHT22;10785;50.674;17.954;2022-12-20T13:49:34;2.00;1.00
21255;DHT22;10785;50.674;17.954;2022-12-20T13:52:23;2.00;1.00
21255;DHT22;10785;50.674;17.954;2022-12-20T13:54:56;2.00;1.00
21255;DHT22;10785;50.674;17.954;2022-12-20T13:57:30;1.90;1.00
21255;DHT22;10785;50.674;17.954;2022-12-20T14:00:02;1.90;1.00
21255;DHT22;10785;50.674;17.954;2022-12-20T14:02:38;1.90;1.00
21255;DHT22;10785;50.674;17.954;2022-12-20T14:05:15;1.80;1.00
21255;DHT22;10785;50.674;17.954;2022-12-20T14:07:46;1.80;1.00
21255;DHT22;10785;50.674;17.954;2022-12-20T14:10:20;1.80;1.00
21255;DHT22;10785;50.674;17.954;2022-12-20T14:12:50;1.70;1.00
21255;DHT22;10785;50.674;17.954;2022-12-20T14:15:21;1.70;1.00
21255;DHT22;10785;50.674;17.954;2022-12-20T14:17:50;1.70;1.00
21255;DHT22;10785;50.674;17.954;2022-12-20T14:20:23;1.70;1.00
21255;DHT22;10785;50.674;17.954;2022-12-20T14:22:55;1.70;1.00
21255;DHT22;10785;50.674;17.954;2022-12-20T14:25:37;1.70;1.00
21255;DHT22;10785;50.674;17.954;2022-12-20T14:28:17;1.70;1.00
21255;DHT22;10785;50.674;17.954;2022-12-20T14:30:54;1.70;1.00
21255;DHT22;10785;50.674;17.954;2022-12-20T14:33:33;1.60;1.00
21255;DHT22;10785;50.674;17.954;2022-12-20T14:36:16;1.60;1.00
21255;DHT22;10785;50.674;17.954;2022-12-20T14:38:50;1.50;1.00
21255;DHT22;10785;50.674;17.954;2022-12-20T14:41:35;1.60;1.00
21255;DHT22;10785;50.674;17.954;2022-12-20T14:44:15;1.50;1.00
21255;DHT22;10785;50.674;17.954;2022-12-20T14:46:49;1.50;1.00
21255;DHT22;10785;50.674;17.954;2022-12-20T14:49:21;1.40;1.00
21255;DHT22;10785;50.674;17.954;2022-12-20T14:51:53;1.40;1.00
21255;DHT22;10785;50.674;17.954;2022-12-20T14:54:31;1.40;1.00
21255;DHT22;10785;50.674;17.954;2022-12-20T14:57:24;1.40;1.00
21255;DHT22;10785;50.674;17.954;2022-12-20T15:00:00;1.40;1.00
21255;DHT22;10785;50.674;17.954;2022-12-20T15:02:34;1.30;1.00
21255;DHT22;10785;50.674;17.954;2022-12-20T15:05:08;1.30;1.00
21255;DHT22;10785;50.674;17.954;2022-12-20T15:08:09;1.20;1.00
21255;DHT22;10785;50.674;17.954;2022-12-20T15:10:38;1.20;1.00
21255;DHT22;10785;50.674;17.954;2022-12-20T15:13:14;1.20;1.00
21255;DHT22;10785;50.674;17.954;2022-12-20T15:15:44;1.10;1.00
21255;DHT22;10785;50.674;17.954;2022-12-20T15:18:13;1.10;1.00
21255;DHT22;10785;50.674;17.954;2022-12-20T15:20:44;1.10;1.00
21255;DHT22;10785;50.674;17.954;2022-12-20T15:23:15;1.10;1.00
21255;DHT22;10785;50.674;17.954;2022-12-20T15:25:44;1.10;1.00
21255;DHT22;10785;50.674;17.954;2022-12-20T15:28:17;1.10;1.00
21255;DHT22;10785;50.674;17.954;2022-12-20T15:30:47;1.10;1.00
21255;DHT22;10785;50.674;17.954;2022-12-20T15:33:19;1.10;1.00
21255;DHT22;10785;50.674;17.954;2022-12-20T15:35:49;1.10;1.00
21255;DHT22;10785;50.674;17.954;2022-12-20T15:38:20;1.10;1.00
21255;DHT22;10785;50.674;17.954;2022-12-20T15:41:15;1.10;1.00
21255;DHT22;10785;50.674;17.954;2022-12-20T15:43:46;1.10;1.00
21255;DHT22;10785;50.674;17.954;2022-12-20T15:46:17;1.00;1.00
21255;DHT22;10785;50.674;17.954;2022-12-20T15:48:48;1.00;1.00
21255;DHT22;10785;50.674;17.954;2022-12-20T15:51:20;1.00;1.00
21255;DHT22;10785;50.674;17.954;2022-12-20T15:53:50;1.00;1.00
21255;DHT22;10785;50.674;17.954;2022-12-20T15:56:21;1.00;1.00
21255;DHT22;10785;50.674;17.954;2022-12-20T15:58:52;0.90;1.00
21255;DHT22;10785;50.674;17.954;2022-12-20T16:01:23;0.90;1.00
21255;DHT22;10785;50.674;17.954;2022-12-20T16:03:53;0.90;1.00
21255;DHT22;10785;50.674;17.954;2022-12-20T16:06:22;0.90;1.00
21255;DHT22;10785;50.674;17.954;2022-12-20T16:08:50;0.90;1.00
21255;DHT22;10785;50.674;17.954;2022-12-20T16:11:22;0.90;1.00
21255;DHT22;10785;50.674;17.954;2022-12-20T16:13:53;0.90;1.00
21255;DHT22;10785;50.674;17.954;2022-12-20T16:16:24;0.90;1.00
21255;DHT22;10785;50.674;17.954;2022-12-20T16:18:56;0.90;1.00
21255;DHT22;10785;50.674;17.954;2022-12-20T16:21:41;0.90;1.00
21255;DHT22;10785;50.674;17.954;2022-12-20T16:24:13;0.90;1.00
21255;DHT22;10785;50.674;17.954;2022-12-20T16:26:43;0.90;1.00
21255;DHT22;10785;50.674;17.954;2022-12-20T16:29:13;0.90;1.00
21255;DHT22;10785;50.674;17.954;2022-12-20T16:31:43;1.00;1.00
21255;DHT22;10785;50.674;17.954;2022-12-20T16:34:13;1.00;1.00
21255;DHT22;10785;50.674;17.954;2022-12-20T16:36:43;1.00;1.00
21255;DHT22;10785;50.674;17.954;2022-12-20T16:39:13;1.00;1.00